Time;durP1;ratioP1;P1;durP2;ratioP2;P2;SDS_P1;SDS_P2;PMS_P1;PMS_P2;Temp;Humidity;BMP_temperature;BMP_pressure;BME280_temperature;BME280_humidity;BME280_pressure;Samples;Min_cycle;Max_cycle;Signal;HPM_P1;HPM_P2
2022/11/24 00:00:25;;;;;;;26.00;9.68;;;8.60;88.30;;;;;;4989188;28;21728;-81
2022/11/24 00:02:51;;;;;;;25.83;10.55;;;8.70;88.20;;;;;;4993931;28;20041;-79
2022/11/24 00:05:16;;;;;;;33.22;12.05;;;8.70;88.10;;;;;;4987288;28;20033;-79
2022/11/24 00:07:42;;;;;;;29.63;11.40;;;8.60;88.10;;;;;;4987071;28;20389;-79
2022/11/24 00:10:08;;;;;;;25.73;11.40;;;8.70;88.20;;;;;;4989256;28;20489;-79
2022/11/24 00:12:34;;;;;;;23.50;8.60;;;8.70;88.10;;;;;;4992008;28;20026;-80
2022/11/24 00:14:59;;;;;;;24.45;8.48;;;8.60;88.20;;;;;;4987925;28;20363;-79
2022/11/24 00:17:25;;;;;;;23.15;10.35;;;8.60;88.20;;;;;;4990005;28;20520;-80
2022/11/24 00:19:50;;;;;;;28.83;9.50;;;8.60;88.20;;;;;;5001730;28;20042;-80
2022/11/24 00:22:16;;;;;;;28.48;10.43;;;8.70;88.30;;;;;;4989331;28;20037;-79
2022/11/24 00:24:42;;;;;;;33.03;11.88;;;8.60;88.20;;;;;;4987341;28;20042;-80
2022/11/24 00:27:07;;;;;;;31.80;11.20;;;8.70;88.20;;;;;;4986278;28;20469;-80
2022/11/24 00:29:33;;;;;;;27.35;11.50;;;8.60;88.30;;;;;;4982245;28;20030;-80
2022/11/24 00:32:00;;;;;;;19.67;5.95;;;8.70;88.40;;;;;;4986854;28;20042;-79
2022/11/24 00:34:26;;;;;;;20.67;5.88;;;8.70;88.20;;;;;;4993080;28;20022;-79
2022/11/24 00:36:51;;;;;;;23.02;5.45;;;8.70;88.10;;;;;;4994894;28;20030;-79
2022/11/24 00:39:17;;;;;;;25.67;4.97;;;8.70;88.20;;;;;;4991455;28;20029;-80
2022/11/24 00:41:43;;;;;;;18.33;5.25;;;8.80;88.10;;;;;;4994508;28;20096;-80
2022/11/24 00:44:09;;;;;;;26.55;5.07;;;8.80;88.10;;;;;;4992130;28;20030;-79
2022/11/24 00:46:34;;;;;;;25.35;4.90;;;8.70;88.00;;;;;;4988386;28;20035;-79
2022/11/24 00:49:00;;;;;;;19.05;5.15;;;8.80;88.10;;;;;;4986356;28;20738;-80
2022/11/24 00:51:29;;;;;;;20.55;4.88;;;8.70;88.20;;;;;;4991978;28;20034;-79
2022/11/24 00:53:57;;;;;;;22.98;4.90;;;8.80;88.20;;;;;;4984866;28;20049;-79
2022/11/24 00:56:24;;;;;;;27.85;6.07;;;8.80;88.30;;;;;;4991851;28;20066;-80
2022/11/24 00:58:50;;;;;;;22.23;5.07;;;8.90;88.20;;;;;;4987587;28;20174;-79
2022/11/24 01:01:19;;;;;;;24.85;5.05;;;8.90;88.10;;;;;;4990077;28;20045;-79
2022/11/24 01:03:46;;;;;;;21.58;5.07;;;8.90;88.00;;;;;;4989807;28;20391;-80
2022/11/24 01:06:14;;;;;;;33.17;5.50;;;8.90;88.10;;;;;;4993402;28;20045;-79
2022/11/24 01:08:40;;;;;;;24.83;5.45;;;8.90;88.10;;;;;;4996253;28;20481;-80
2022/11/24 01:11:19;;;;;;;22.92;4.47;;;8.90;88.20;;;;;;4989414;28;20057;-79
2022/11/24 01:13:47;;;;;;;21.23;5.40;;;8.90;88.20;;;;;;4988716;28;20033;-79
2022/11/24 01:16:33;;;;;;;30.52;5.43;;;8.90;88.30;;;;;;4987040;28;20319;-80
2022/11/24 01:19:00;;;;;;;24.58;5.50;;;9.00;88.40;;;;;;4992147;28;20074;-79
2022/11/24 01:21:25;;;;;;;23.65;5.82;;;9.00;88.50;;;;;;4981692;28;20379;-80
2022/11/24 01:23:51;;;;;;;29.15;5.28;;;9.00;88.50;;;;;;4992369;28;20034;-80
2022/11/24 01:26:19;;;;;;;28.30;5.47;;;9.00;88.60;;;;;;4993592;28;20031;-79
2022/11/24 01:28:45;;;;;;;26.95;6.10;;;9.00;88.70;;;;;;4994061;28;20029;-78
2022/11/24 01:31:11;;;;;;;32.45;6.13;;;9.00;88.80;;;;;;4992234;28;20046;-79
2022/11/24 01:33:37;;;;;;;26.73;6.70;;;9.00;89.00;;;;;;5001847;28;20471;-79
2022/11/24 01:36:04;;;;;;;23.10;6.65;;;9.00;89.20;;;;;;4991126;28;20030;-79
2022/11/24 01:38:30;;;;;;;25.75;6.82;;;9.00;89.30;;;;;;4991789;28;20065;-79
2022/11/24 01:41:05;;;;;;;28.10;5.85;;;9.00;89.40;;;;;;4988944;28;20049;-79
2022/11/24 01:43:31;;;;;;;;;;;9.00;89.50;;;;;;4984356;28;20378;-79
2022/11/24 01:46:02;;;;;;;9.55;2.47;;;9.00;88.80;;;;;;4992718;28;19928;-78
2022/11/24 01:48:42;;;;;;;10.00;2.28;;;8.70;87.40;;;;;;4993126;28;20037;-79
2022/11/24 01:51:22;;;;;;;12.82;2.63;;;8.60;87.70;;;;;;4987591;28;20101;-79
2022/11/24 01:53:55;;;;;;;10.90;2.20;;;8.50;87.80;;;;;;4989195;28;20416;-79
2022/11/24 01:56:21;;;;;;;5.65;1.60;;;8.30;87.70;;;;;;4991686;28;20062;-79
2022/11/24 01:58:49;;;;;;;4.97;1.60;;;8.20;87.80;;;;;;4992449;28;20039;-79
2022/11/24 02:01:14;;;;;;;5.68;1.50;;;8.10;88.00;;;;;;4994056;28;20046;-79
2022/11/24 02:03:43;;;;;;;8.88;2.15;;;8.10;88.40;;;;;;4988182;28;20080;-78
2022/11/24 02:06:12;;;;;;;7.53;1.65;;;8.10;88.40;;;;;;4987035;28;20060;-78
2022/11/24 02:08:53;;;;;;;4.40;1.52;;;8.00;88.60;;;;;;4986239;28;20077;-78
2022/11/24 02:11:21;;;;;;;5.30;1.77;;;8.00;88.90;;;;;;4983821;28;20355;-78
2022/11/24 02:13:50;;;;;;;5.85;1.83;;;8.00;88.90;;;;;;4988443;28;20027;-78
2022/11/24 02:16:16;;;;;;;5.13;1.52;;;8.00;89.00;;;;;;4986339;28;20276;-78
2022/11/24 02:18:43;;;;;;;5.32;1.73;;;7.90;89.10;;;;;;4992446;28;20041;-78
2022/11/24 02:21:12;;;;;;;3.70;1.58;;;7.90;89.00;;;;;;4992580;28;20044;-78
2022/11/24 02:24:03;;;;;;;5.97;2.10;;;7.90;89.10;;;;;;4992927;28;20026;-79
2022/11/24 02:26:47;;;;;;;7.95;1.45;;;7.90;89.20;;;;;;4987437;28;20042;-79
2022/11/24 02:29:13;;;;;;;5.03;1.55;;;7.90;89.40;;;;;;5001267;28;20022;-77
2022/11/24 02:31:43;;;;;;;4.60;1.70;;;7.90;89.40;;;;;;4990235;28;20042;-80
2022/11/24 02:34:09;;;;;;;6.40;1.65;;;7.90;89.40;;;;;;4994658;28;20050;-80
2022/11/24 02:36:34;;;;;;;5.50;1.65;;;7.80;89.60;;;;;;4989112;28;20098;-80
2022/11/24 02:39:00;;;;;;;4.05;1.50;;;7.80;89.70;;;;;;4990133;28;20418;-80
2022/11/24 02:41:27;;;;;;;6.88;1.80;;;7.80;89.80;;;;;;4989188;28;20043;-80
2022/11/24 02:44:00;;;;;;;6.70;2.00;;;7.80;89.80;;;;;;4991686;28;20038;-80
2022/11/24 02:46:26;;;;;;;8.35;1.70;;;7.80;89.80;;;;;;4996815;28;20038;-79
2022/11/24 02:48:52;;;;;;;5.90;1.63;;;7.80;89.80;;;;;;4988069;28;20033;-79
2022/11/24 02:51:18;;;;;;;6.55;1.88;;;7.90;89.80;;;;;;4991779;28;20043;-79
2022/11/24 02:53:44;;;;;;;4.97;1.90;;;7.90;89.80;;;;;;4995109;28;20033;-79
2022/11/24 02:56:09;;;;;;;7.20;1.80;;;7.90;89.80;;;;;;4988362;28;20035;-80
2022/11/24 02:58:35;;;;;;;6.28;2.20;;;7.90;89.70;;;;;;4987707;28;20080;-79
2022/11/24 03:01:01;;;;;;;6.80;1.92;;;8.00;89.60;;;;;;4985652;28;20102;-79
2022/11/24 03:03:27;;;;;;;3.13;1.45;;;7.90;89.60;;;;;;4985803;28;20121;-79
2022/11/24 03:05:53;;;;;;;6.15;1.90;;;7.90;89.50;;;;;;4984178;28;20133;-80
2022/11/24 03:08:19;;;;;;;4.65;1.80;;;7.90;89.40;;;;;;4984365;28;20042;-80
2022/11/24 03:10:44;;;;;;;4.82;1.40;;;7.90;89.30;;;;;;4988648;28;20112;-79
2022/11/24 03:13:10;;;;;;;8.15;2.03;;;7.90;89.20;;;;;;4983634;28;20031;-79
2022/11/24 03:15:36;;;;;;;5.75;1.42;;;7.90;89.20;;;;;;4988278;28;20141;-79
2022/11/24 03:18:02;;;;;;;7.05;1.83;;;7.90;89.20;;;;;;4984751;28;20113;-79
2022/11/24 03:20:28;;;;;;;4.55;1.60;;;7.90;89.30;;;;;;4988342;28;20042;-80
2022/11/24 03:22:53;;;;;;;6.38;1.65;;;8.00;89.40;;;;;;4982858;28;20039;-79
2022/11/24 03:25:19;;;;;;;6.72;1.40;;;8.00;89.50;;;;;;4992908;28;20052;-79
2022/11/24 03:27:45;;;;;;;7.50;2.10;;;8.00;89.60;;;;;;4991774;28;20451;-79
2022/11/24 03:30:11;;;;;;;11.02;2.45;;;8.10;89.80;;;;;;4992352;28;20037;-80
2022/11/24 03:32:37;;;;;;;8.15;1.88;;;8.10;90.00;;;;;;4988407;28;20033;-79
2022/11/24 03:35:03;;;;;;;6.88;2.13;;;8.10;90.10;;;;;;4995490;28;20426;-80
2022/11/24 03:37:29;;;;;;;8.52;1.90;;;8.10;90.30;;;;;;4993878;28;20034;-81
2022/11/24 03:39:55;;;;;;;8.55;1.98;;;8.10;90.40;;;;;;4991875;28;20034;-80
2022/11/24 03:42:21;;;;;;;14.98;2.42;;;8.10;90.50;;;;;;5001633;28;20050;-79
2022/11/24 03:44:46;;;;;;;7.95;1.80;;;8.10;90.50;;;;;;4989027;28;20032;-80
2022/11/24 03:47:12;;;;;;;9.88;2.25;;;8.10;90.60;;;;;;4987033;28;20045;-80
2022/11/24 03:49:40;;;;;;;10.23;1.92;;;8.00;90.70;;;;;;4994200;28;20521;-79
2022/11/24 03:52:06;;;;;;;5.55;1.90;;;8.00;90.80;;;;;;4998636;28;20073;-79
2022/11/24 03:54:31;;;;;;;9.10;2.25;;;8.00;90.90;;;;;;4985723;28;20046;-79
2022/11/24 03:56:57;;;;;;;9.82;1.90;;;7.90;90.90;;;;;;4989370;28;20092;-79
2022/11/24 03:59:23;;;;;;;6.95;2.03;;;7.90;90.90;;;;;;4990271;28;20033;-79
2022/11/24 04:01:48;;;;;;;11.07;2.70;;;7.90;90.80;;;;;;4994741;28;20045;-79
2022/11/24 04:04:14;;;;;;;6.18;2.50;;;7.90;91.00;;;;;;4996387;28;20121;-79
2022/11/24 04:06:40;;;;;;;10.85;2.60;;;7.80;90.90;;;;;;4990954;28;20080;-79
2022/11/24 04:09:06;;;;;;;9.98;2.40;;;7.80;90.90;;;;;;4987410;28;20047;-79
2022/11/24 04:14:17;;;;;;;10.13;2.17;;;7.80;91.00;;;;;;4989510;28;20383;-80
2022/11/24 04:16:42;;;;;;;8.18;2.58;;;7.70;90.80;;;;;;4995657;28;20092;-79
2022/11/24 04:19:08;;;;;;;9.32;2.60;;;7.80;90.90;;;;;;5012823;28;20026;-78
2022/11/24 04:21:34;;;;;;;11.48;2.65;;;7.70;90.90;;;;;;5000635;28;20046;-79
2022/11/24 04:23:59;;;;;;;6.93;2.47;;;7.70;90.80;;;;;;4991249;28;20039;-79
2022/11/24 04:26:25;;;;;;;7.72;2.00;;;7.70;90.70;;;;;;4983794;28;20047;-79
2022/11/24 04:28:51;;;;;;;8.65;2.40;;;7.70;90.70;;;;;;4987348;28;20446;-79
2022/11/24 04:31:17;;;;;;;10.00;3.17;;;7.70;90.70;;;;;;4986149;28;20092;-80
2022/11/24 04:33:43;;;;;;;9.60;2.10;;;7.60;90.70;;;;;;4996347;28;20113;-80
2022/11/24 04:36:08;;;;;;;11.05;2.60;;;7.60;90.50;;;;;;4997292;28;20121;-80
2022/11/24 04:38:34;;;;;;;9.45;2.35;;;7.60;90.50;;;;;;4995047;28;20383;-79
2022/11/24 04:41:02;;;;;;;13.13;2.58;;;7.60;90.50;;;;;;4995100;28;20054;-79
2022/11/24 04:43:28;;;;;;;10.55;2.55;;;7.60;90.50;;;;;;5002787;28;20356;-79
2022/11/24 04:45:54;;;;;;;10.00;2.63;;;7.60;90.40;;;;;;4993576;28;20114;-79
2022/11/24 04:48:19;;;;;;;9.68;2.33;;;7.60;90.40;;;;;;4994386;28;20133;-79
2022/11/24 04:50:45;;;;;;;8.05;2.10;;;7.60;90.40;;;;;;4993999;28;20034;-79
2022/11/24 04:53:12;;;;;;;10.73;2.35;;;7.70;90.40;;;;;;4994798;28;20092;-80
2022/11/24 04:55:39;;;;;;;8.85;2.58;;;7.70;90.30;;;;;;4990683;28;20536;-79
2022/11/24 04:58:08;;;;;;;8.57;2.40;;;7.70;90.20;;;;;;4996010;28;20462;-78
2022/11/24 05:00:34;;;;;;;6.47;2.20;;;7.70;90.20;;;;;;4990740;28;20054;-79
2022/11/24 05:03:00;;;;;;;7.60;2.22;;;7.60;90.20;;;;;;4994250;28;20033;-79
2022/11/24 05:05:25;;;;;;;14.30;2.58;;;7.60;90.20;;;;;;4993586;28;20526;-79
2022/11/24 05:07:51;;;;;;;12.80;2.78;;;7.60;90.40;;;;;;4990927;28;20031;-79
2022/11/24 05:10:35;;;;;;;11.52;2.70;;;7.60;90.30;;;;;;5000492;28;20046;-79
2022/11/24 05:13:02;;;;;;;14.07;2.55;;;7.50;90.40;;;;;;4988895;28;20038;-79
2022/11/24 05:15:28;;;;;;;10.60;3.35;;;7.50;90.50;;;;;;4989636;28;20042;-79
2022/11/24 05:17:54;;;;;;;13.40;3.58;;;7.50;90.50;;;;;;4985599;28;20034;-79
2022/11/24 05:20:20;;;;;;;12.73;3.20;;;7.50;90.60;;;;;;4996746;28;20062;-78
2022/11/24 05:22:46;;;;;;;12.20;3.15;;;7.40;90.70;;;;;;4994029;28;20046;-79
2022/11/24 05:25:13;;;;;;;16.23;4.13;;;7.40;90.80;;;;;;4988892;28;20030;-80
2022/11/24 05:27:39;;;;;;;11.32;3.78;;;7.40;91.00;;;;;;4985750;28;20433;-80
2022/11/24 05:30:05;;;;;;;12.50;3.65;;;7.30;91.10;;;;;;4990795;28;20038;-80
2022/11/24 05:32:31;;;;;;;10.30;3.45;;;7.30;91.10;;;;;;4988428;28;20043;-80
2022/11/24 05:34:59;;;;;;;12.07;2.67;;;7.30;91.00;;;;;;4982686;28;20030;-81
2022/11/24 05:37:27;;;;;;;12.50;3.45;;;7.30;91.20;;;;;;4981181;28;20110;-80
2022/11/24 05:39:53;;;;;;;18.23;3.60;;;7.30;91.10;;;;;;4980647;28;20455;-80
2022/11/24 05:45:04;;;;;;;13.63;3.55;;;7.30;91.20;;;;;;4978435;28;20038;-79
2022/11/24 05:47:30;;;;;;;12.57;2.65;;;7.30;91.20;;;;;;4977472;28;20038;-79
2022/11/24 05:49:56;;;;;;;14.82;2.72;;;7.30;91.30;;;;;;4978623;28;20066;-79
2022/11/24 05:52:21;;;;;;;13.07;2.95;;;7.30;91.30;;;;;;4989472;28;20548;-80
2022/11/24 05:54:47;;;;;;;16.65;3.30;;;7.30;91.20;;;;;;4982063;28;20038;-79
2022/11/24 05:57:13;;;;;;;11.57;3.20;;;7.30;91.20;;;;;;4985739;28;20076;-79
2022/11/24 05:59:39;;;;;;;12.40;3.55;;;7.20;91.10;;;;;;4992894;28;20038;-77
2022/11/24 06:02:04;;;;;;;17.35;3.63;;;7.10;91.10;;;;;;4991044;28;20170;-83
2022/11/24 06:04:30;;;;;;;11.52;3.60;;;7.10;91.20;;;;;;4989060;28;20035;-81
2022/11/24 06:06:56;;;;;;;17.77;3.83;;;7.10;91.20;;;;;;4986971;28;20037;-81
2022/11/24 06:09:21;;;;;;;14.63;3.75;;;7.10;91.20;;;;;;4985884;28;20037;-81
2022/11/24 06:11:48;;;;;;;14.10;4.32;;;7.00;91.30;;;;;;4984656;28;20046;-79
2022/11/24 06:14:13;;;;;;;16.63;3.50;;;7.00;91.40;;;;;;4983187;28;20043;-81
2022/11/24 06:16:39;;;;;;;13.95;4.13;;;7.10;91.60;;;;;;4997279;28;20387;-79
2022/11/24 06:19:05;;;;;;;17.00;3.42;;;7.10;91.60;;;;;;4990314;28;20144;-81
2022/11/24 06:21:30;;;;;;;14.35;3.85;;;7.00;91.70;;;;;;4984577;28;20065;-81
2022/11/24 06:23:56;;;;;;;15.02;4.05;;;7.00;91.70;;;;;;4987469;28;20029;-81
2022/11/24 06:26:22;;;;;;;12.68;3.78;;;6.90;91.80;;;;;;4985011;28;20992;-80
2022/11/24 06:28:47;;;;;;;14.98;3.90;;;7.00;91.90;;;;;;4988044;28;20045;-80
2022/11/24 06:31:13;;;;;;;13.40;3.53;;;6.90;91.90;;;;;;4988325;28;20046;-81
2022/11/24 06:33:39;;;;;;;16.27;4.03;;;6.90;92.10;;;;;;4989425;28;20080;-78
2022/11/24 06:36:08;;;;;;;15.02;3.40;;;7.00;92.20;;;;;;4987853;28;20030;-78
2022/11/24 06:38:35;;;;;;;13.60;3.40;;;7.10;92.40;;;;;;4988759;28;20033;-77
2022/11/24 06:41:06;;;;;;;13.95;3.88;;;7.00;92.30;;;;;;4987006;28;20049;-78
2022/11/24 06:43:33;;;;;;;14.30;3.97;;;7.00;92.20;;;;;;4981879;28;20229;-79
2022/11/24 06:45:58;;;;;;;13.95;4.45;;;7.00;92.30;;;;;;4991109;28;20514;-78
2022/11/24 06:48:25;;;;;;;15.70;3.42;;;6.90;92.30;;;;;;4988926;28;20042;-78
2022/11/24 06:50:51;;;;;;;16.02;3.38;;;6.90;92.40;;;;;;4978630;28;20034;-79
2022/11/24 06:53:17;;;;;;;18.73;3.67;;;7.00;92.50;;;;;;4983597;28;20371;-79
2022/11/24 06:55:44;;;;;;;16.08;4.50;;;6.90;92.60;;;;;;4986975;28;20160;-79
2022/11/24 06:58:10;;;;;;;13.90;4.15;;;7.00;92.70;;;;;;4978340;28;20081;-78
2022/11/24 07:00:36;;;;;;;16.00;4.22;;;7.00;92.70;;;;;;4987495;28;20046;-77
2022/11/24 07:03:02;;;;;;;13.52;4.03;;;7.00;92.60;;;;;;4984486;28;20097;-79
2022/11/24 07:05:27;;;;;;;18.65;4.53;;;7.00;92.70;;;;;;4979550;28;20046;-77
2022/11/24 07:07:54;;;;;;;16.33;4.15;;;6.90;92.70;;;;;;4984874;28;20031;-79
2022/11/24 07:10:19;;;;;;;14.40;3.90;;;6.90;92.60;;;;;;4980320;28;20061;-79
2022/11/24 07:12:45;;;;;;;16.88;4.55;;;6.90;92.60;;;;;;4985296;28;20034;-78
2022/11/24 07:15:11;;;;;;;20.55;5.25;;;6.90;92.80;;;;;;4986690;28;20022;-78
2022/11/24 07:17:38;;;;;;;18.05;4.70;;;6.90;92.70;;;;;;4988614;28;20034;-76
2022/11/24 07:20:05;;;;;;;14.85;4.35;;;6.80;92.80;;;;;;4993668;28;20080;-80
2022/11/24 07:22:30;;;;;;;13.00;4.40;;;6.90;92.90;;;;;;4996888;28;20102;-78
2022/11/24 07:24:56;;;;;;;18.63;4.90;;;6.90;93.00;;;;;;4997118;28;20525;-79
2022/11/24 07:27:22;;;;;;;16.25;4.28;;;6.90;92.90;;;;;;4999716;28;20118;-78
2022/11/24 07:29:47;;;;;;;17.95;4.53;;;7.00;93.00;;;;;;4995068;28;20041;-78
2022/11/24 07:32:13;;;;;;;16.15;5.35;;;7.00;92.90;;;;;;4987714;28;20062;-79
2022/11/24 07:34:38;;;;;;;17.00;4.40;;;7.00;93.00;;;;;;4992964;28;20038;-79
2022/11/24 07:37:04;;;;;;;17.80;4.50;;;6.90;93.00;;;;;;4988514;28;20043;-79
2022/11/24 07:39:30;;;;;;;12.65;4.25;;;7.00;93.10;;;;;;4985151;28;20054;-79
2022/11/24 07:41:58;;;;;;;21.63;4.30;;;7.00;93.10;;;;;;4995260;28;20121;-80
2022/11/24 07:44:24;;;;;;;14.80;3.95;;;7.00;93.00;;;;;;4986294;28;20035;-80
2022/11/24 07:46:50;;;;;;;15.60;4.25;;;7.00;93.00;;;;;;4989178;28;20035;-78
2022/11/24 07:49:16;;;;;;;18.15;4.97;;;7.10;93.10;;;;;;4988641;28;20033;-79
2022/11/24 07:51:42;;;;;;;13.05;4.20;;;7.10;93.10;;;;;;4992864;28;20121;-80
2022/11/24 07:54:07;;;;;;;14.77;4.82;;;7.10;93.00;;;;;;4985518;28;20082;-80
2022/11/24 07:56:33;;;;;;;15.52;4.30;;;7.10;93.00;;;;;;4986994;28;20038;-80
2022/11/24 07:58:59;;;;;;;17.50;5.22;;;7.10;92.90;;;;;;4980437;28;20031;-79
2022/11/24 08:01:24;;;;;;;15.63;4.32;;;7.10;92.90;;;;;;4981568;28;20081;-78
2022/11/24 08:03:50;;;;;;;13.80;4.68;;;7.10;92.80;;;;;;4989458;28;20041;-76
2022/11/24 08:06:17;;;;;;;17.13;4.78;;;7.20;92.90;;;;;;4989098;28;20038;-81
2022/11/24 08:08:43;;;;;;;15.65;4.70;;;7.20;92.90;;;;;;4989713;28;20382;-80
2022/11/24 08:11:14;;;;;;;17.45;4.53;;;7.20;92.80;;;;;;4992148;28;20042;-77
2022/11/24 08:13:40;;;;;;;14.32;4.05;;;7.30;92.80;;;;;;4990503;28;20042;-77
2022/11/24 08:16:08;;;;;;;12.70;6.40;;;7.30;92.80;;;;;;4988930;28;20984;-78
2022/11/24 08:18:34;;;;;;;16.38;6.20;;;7.40;92.80;;;;;;4987930;28;20066;-79
2022/11/24 08:21:00;;;;;;;18.67;6.45;;;7.40;92.70;;;;;;4991922;28;20203;-79
2022/11/24 08:23:27;;;;;;;22.42;7.13;;;7.40;92.70;;;;;;4995674;28;20034;-79
2022/11/24 08:25:55;;;;;;;15.35;5.05;;;7.40;92.70;;;;;;4986706;28;20128;-80
2022/11/24 08:28:21;;;;;;;16.27;5.10;;;7.50;92.70;;;;;;4987346;28;20430;-79
2022/11/24 08:30:47;;;;;;;17.63;5.68;;;7.60;92.60;;;;;;4986243;28;20026;-80
2022/11/24 08:33:12;;;;;;;25.08;10.25;;;7.60;92.50;;;;;;4989834;28;20374;-80
2022/11/24 08:35:38;;;;;;;16.95;6.45;;;7.60;92.40;;;;;;4986293;28;20253;-79
2022/11/24 08:38:05;;;;;;;12.73;4.18;;;7.70;92.20;;;;;;4988987;28;20378;-78
2022/11/24 08:40:31;;;;;;;14.57;4.78;;;7.80;92.10;;;;;;4986356;28;20093;-79
2022/11/24 08:43:00;;;;;;;18.02;5.00;;;7.90;92.00;;;;;;4993649;28;20121;-79
2022/11/24 08:45:27;;;;;;;14.50;4.85;;;8.00;91.70;;;;;;5004538;28;20050;-77
2022/11/24 08:47:54;;;;;;;17.23;5.20;;;8.10;91.60;;;;;;4989411;28;20129;-77
2022/11/24 08:50:21;;;;;;;17.30;5.43;;;8.10;91.30;;;;;;4989373;28;20046;-78
2022/11/24 08:52:46;;;;;;;16.85;4.63;;;8.20;91.20;;;;;;4991160;28;20113;-79
2022/11/24 08:55:12;;;;;;;20.15;4.65;;;8.30;91.00;;;;;;4987122;28;20305;-78
2022/11/24 08:57:38;;;;;;;14.73;4.47;;;8.40;90.70;;;;;;4988246;28;20034;-78
2022/11/24 09:00:05;;;;;;;16.27;4.70;;;8.50;90.60;;;;;;4986310;28;20030;-79
2022/11/24 09:02:31;;;;;;;16.73;4.55;;;8.60;90.50;;;;;;4982385;28;20486;-80
2022/11/24 09:04:57;;;;;;;17.00;5.43;;;8.60;90.10;;;;;;4993606;28;20054;-80
2022/11/24 09:07:22;;;;;;;15.82;5.35;;;8.60;89.60;;;;;;4988571;28;20038;-78
2022/11/24 09:09:48;;;;;;;18.75;5.25;;;8.70;89.60;;;;;;4983284;28;20113;-81
2022/11/24 09:12:14;;;;;;;17.50;4.72;;;8.80;89.50;;;;;;4990641;28;20081;-80
2022/11/24 09:14:41;;;;;;;18.05;5.50;;;8.90;89.30;;;;;;4984869;28;20118;-79
2022/11/24 09:17:07;;;;;;;15.15;4.97;;;8.90;89.10;;;;;;4991188;28;20050;-80
2022/11/24 09:19:33;;;;;;;13.43;4.25;;;9.10;89.10;;;;;;4984170;28;20046;-80
2022/11/24 09:21:58;;;;;;;12.00;4.10;;;9.20;88.80;;;;;;4991002;28;20050;-78
2022/11/24 09:24:24;;;;;;;18.20;4.90;;;9.20;88.20;;;;;;4991653;28;20379;-80
2022/11/24 09:26:52;;;;;;;19.42;4.25;;;9.30;88.10;;;;;;4990012;28;20061;-80
2022/11/24 09:29:18;;;;;;;19.00;4.60;;;9.40;88.00;;;;;;4990250;28;20097;-81
2022/11/24 09:31:43;;;;;;;14.40;4.97;;;9.50;87.50;;;;;;4986922;28;20039;-79
2022/11/24 09:34:13;;;;;;;19.05;7.60;;;9.60;87.40;;;;;;4991779;28;20471;-80
2022/11/24 09:36:39;;;;;;;19.85;7.75;;;9.70;87.00;;;;;;4994818;28;20329;-79
2022/11/24 09:39:05;;;;;;;19.35;7.43;;;9.80;87.00;;;;;;4995777;28;20064;-80
2022/11/24 09:41:38;;;;;;;20.23;7.45;;;9.90;86.70;;;;;;4994405;28;20101;-80
2022/11/24 09:44:23;;;;;;;23.15;10.65;;;10.00;86.40;;;;;;4989302;28;20049;-79
2022/11/24 09:47:19;;;;;;;16.13;6.47;;;10.10;86.30;;;;;;4984664;28;20041;-80
2022/11/24 09:50:13;;;;;;;17.10;5.75;;;10.10;86.20;;;;;;4989095;28;20149;-79
2022/11/24 09:52:59;;;;;;;17.42;5.28;;;10.20;85.50;;;;;;4993555;28;20097;-81
2022/11/24 09:55:37;;;;;;;15.18;5.35;;;10.30;85.30;;;;;;4982581;28;20039;-80
2022/11/24 09:58:11;;;;;;;15.35;4.90;;;10.30;85.20;;;;;;4980066;28;20121;-80
2022/11/24 10:00:37;;;;;;;15.25;5.20;;;10.40;85.20;;;;;;4979910;28;20046;-81
2022/11/24 10:03:04;;;;;;;16.02;5.20;;;10.40;85.20;;;;;;4991630;28;20030;-78
2022/11/24 10:05:34;;;;;;;19.08;5.00;;;10.40;85.30;;;;;;4986420;28;20395;-81
2022/11/24 10:08:37;;;;;;;20.67;5.35;;;10.40;85.20;;;;;;4988568;28;20088;-81
2022/11/24 10:11:11;;;;;;;14.10;4.43;;;10.40;85.40;;;;;;4988477;28;20386;-81
2022/11/24 10:14:14;;;;;;;17.75;5.45;;;10.60;85.30;;;;;;4986786;28;20419;-80
2022/11/24 10:16:59;;;;;;;16.55;4.57;;;10.70;84.60;;;;;;4986528;28;20043;-78
2022/11/24 10:19:37;;;;;;;18.20;4.55;;;10.80;84.10;;;;;;4988904;28;20485;-81
2022/11/24 10:22:16;;;;;;;13.55;4.32;;;10.70;83.90;;;;;;4984659;28;20059;-81
2022/11/24 10:25:26;;;;;;;17.75;4.70;;;10.70;84.00;;;;;;4980690;28;20140;-81
2022/11/24 10:28:02;;;;;;;16.10;4.18;;;10.70;84.20;;;;;;4989484;28;20042;-80
2022/11/24 10:30:28;;;;;;;14.70;4.07;;;10.80;84.10;;;;;;4989389;28;20050;-80
2022/11/24 10:33:14;;;;;;;15.85;4.57;;;10.90;84.10;;;;;;4988585;28;20082;-81
2022/11/24 10:35:47;;;;;;;15.63;4.45;;;11.10;84.00;;;;;;4990049;28;20439;-77
2022/11/24 10:38:37;;;;;;;14.63;3.67;;;11.10;83.20;;;;;;4989474;28;20534;-81
2022/11/24 10:41:18;;;;;;;17.70;4.45;;;11.20;83.10;;;;;;4984256;28;20040;-79
2022/11/24 10:43:44;;;;;;;16.50;4.15;;;11.40;83.00;;;;;;4987193;28;20037;-81
2022/11/24 10:46:15;;;;;;;18.73;4.65;;;11.30;82.80;;;;;;4989539;28;20034;-80
2022/11/24 10:48:46;;;;;;;17.45;4.28;;;11.30;82.80;;;;;;4990613;28;20032;-80
2022/11/24 10:51:45;;;;;;;15.73;4.25;;;11.40;82.30;;;;;;4992504;28;20058;-77
2022/11/24 10:54:11;;;;;;;16.98;4.22;;;11.30;82.40;;;;;;4989189;28;20487;-80
2022/11/24 10:56:41;;;;;;;16.98;3.92;;;11.40;82.50;;;;;;4980360;28;20072;-80
2022/11/24 10:59:24;;;;;;;19.02;4.40;;;11.50;82.30;;;;;;4986856;28;20475;-80
2022/11/24 11:01:51;;;;;;;21.92;3.95;;;11.60;81.90;;;;;;4987368;28;20453;-80
2022/11/24 11:04:24;;;;;;;17.23;4.18;;;11.60;81.60;;;;;;4990609;28;20026;-78
2022/11/24 11:06:50;;;;;;;18.60;4.25;;;11.60;81.70;;;;;;4980779;28;20048;-80
2022/11/24 11:09:18;;;;;;;16.92;4.07;;;11.70;81.20;;;;;;4986419;28;20155;-79
2022/11/24 11:11:47;;;;;;;15.50;4.78;;;11.70;81.10;;;;;;4987290;28;20069;-80
2022/11/24 11:14:27;;;;;;;16.70;4.15;;;11.80;81.20;;;;;;4987792;28;20112;-80
2022/11/24 11:16:54;;;;;;;15.00;4.38;;;11.70;80.70;;;;;;4985858;28;20093;-79
2022/11/24 11:19:42;;;;;;;19.13;6.97;;;11.70;81.10;;;;;;4993476;28;20042;-77
2022/11/24 11:22:11;;;;;;;17.40;5.25;;;11.80;80.70;;;;;;4986057;28;20053;-80
2022/11/24 11:24:38;;;;;;;16.40;4.88;;;11.70;81.10;;;;;;4985678;28;20506;-81
2022/11/24 11:27:25;;;;;;;21.70;6.97;;;11.70;80.70;;;;;;4982622;28;20387;-80
2022/11/24 11:29:51;;;;;;;28.65;9.63;;;11.70;80.90;;;;;;4986359;28;20061;-78
2022/11/24 11:32:24;;;;;;;22.85;7.22;;;11.70;81.10;;;;;;4987613;28;20026;-80
2022/11/24 11:34:53;;;;;;;27.98;8.70;;;11.60;80.90;;;;;;4987255;28;20168;-79
2022/11/24 11:37:20;;;;;;;36.58;15.48;;;11.60;81.10;;;;;;4999926;28;20049;-78
2022/11/24 11:39:48;;;;;;;30.45;11.60;;;11.70;81.20;;;;;;4993751;28;20037;-79
2022/11/24 11:42:40;;;;;;;24.65;6.65;;;11.70;81.30;;;;;;4992348;28;20129;-80
2022/11/24 11:45:20;;;;;;;18.40;6.22;;;11.70;80.90;;;;;;4988530;28;20585;-79
2022/11/24 11:47:54;;;;;;;34.58;14.15;;;11.70;81.10;;;;;;4992654;28;20049;-80
2022/11/24 11:50:26;;;;;;;20.73;6.57;;;11.80;81.10;;;;;;4994357;28;20383;-80
2022/11/24 11:53:19;;;;;;;28.85;11.38;;;11.90;80.40;;;;;;4990410;28;20483;-80
2022/11/24 11:55:57;;;;;;;23.63;7.30;;;12.00;80.50;;;;;;5007340;28;20069;-78
2022/11/24 11:59:01;;;;;;;19.98;5.20;;;12.10;79.90;;;;;;4981758;28;20337;-79
2022/11/24 12:01:36;;;;;;;17.08;4.68;;;12.00;79.80;;;;;;4989719;28;20490;-79
2022/11/24 12:04:02;;;;;;;;;;;12.00;79.80;;;;;;4993412;28;20121;-78
2022/11/24 12:06:42;;;;;;;25.05;5.43;;;12.00;80.00;;;;;;4993418;28;20020;-81
2022/11/24 12:09:40;;;;;;;19.70;4.82;;;12.10;79.80;;;;;;4988926;28;20034;-80
2022/11/24 12:12:38;;;;;;;19.20;4.07;;;12.10;79.90;;;;;;4997044;28;20125;-80
2022/11/24 12:15:34;;;;;;;15.15;5.07;;;12.20;79.70;;;;;;4991768;28;20403;-80
2022/11/24 12:18:19;;;;;;;15.02;3.88;;;12.10;79.20;;;;;;4993610;28;20130;-80
2022/11/24 12:21:24;;;;;;;20.70;4.77;;;12.30;79.40;;;;;;4989713;28;20133;-80
2022/11/24 12:24:07;;;;;;;21.05;5.32;;;12.30;78.80;;;;;;4994229;28;20284;-80
2022/11/24 12:26:36;;;;;;;17.20;4.45;;;12.20;78.70;;;;;;4984111;28;20037;-78
2022/11/24 12:29:16;;;;;;;18.90;7.55;;;12.20;79.20;;;;;;4988857;28;20066;-80
2022/11/24 12:32:00;;;;;;;17.92;5.07;;;12.30;78.90;;;;;;4986920;28;20366;-79
2022/11/24 12:35:01;;;;;;;16.30;4.73;;;12.10;78.90;;;;;;4998942;28;20113;-80
2022/11/24 12:37:38;;;;;;;20.17;5.13;;;12.00;79.40;;;;;;4994631;28;20286;-79
2022/11/24 12:40:28;;;;;;;17.38;4.68;;;11.90;79.60;;;;;;4988021;28;20049;-79
2022/11/24 12:42:59;;;;;;;18.15;4.50;;;11.70;79.80;;;;;;4998437;28;20535;-76
2022/11/24 12:45:45;;;;;;;19.63;4.07;;;11.70;79.80;;;;;;4991660;28;20041;-80
2022/11/24 12:48:45;;;;;;;15.25;3.60;;;11.60;79.90;;;;;;4994107;28;20034;-78
2022/11/24 12:51:19;;;;;;;22.13;4.18;;;11.60;80.10;;;;;;4997231;28;20027;-77
2022/11/24 12:53:48;;;;;;;22.00;4.38;;;11.40;80.20;;;;;;4991198;28;20134;-78
2022/11/24 12:56:18;;;;;;;18.48;4.22;;;11.40;80.40;;;;;;4988094;28;20034;-79
2022/11/24 12:58:52;;;;;;;18.77;4.00;;;11.40;80.90;;;;;;4991348;28;20049;-79
2022/11/24 13:01:24;;;;;;;16.33;4.65;;;11.30;81.20;;;;;;4990034;28;20037;-79
2022/11/24 13:04:09;;;;;;;17.27;4.03;;;11.40;81.30;;;;;;4986047;28;20487;-78